Arapahoe, WY

4:06 AM MDT on September 21, 2014 (GMT -0600)
KWYRIVER2 | Change Station
CLOSE
Current Station
Personal Weather Station
Location: Riverton, WY
Elevation: 5405 ft
Nearby Weather Stations

Elev 5405 ft 43.08 °N, 108.52 °W | Updated 4 minutes ago

Clear
Clear
52.9 °F
Feels Like 52.9 °F
N
6.0
Wind Variable Wind from ENE

Today
High -- | Low -- °F
--% Chance of Precip.
Yesterday
High -- | Low -- °F
Precip. -- in
7:00 AM 7:13 PM
Waning Crescent, 7% visible
Pressure 30.19 in
Visibility 10.0 miles
Clouds Clear
Dew Point 37 °F
Humidity 55%
Rainfall 0.00 in
Snow Depth 0 in , 0 in , 0 in
UV 0.0 out of 12
Pollen 5.00 out of 12
Air Quality Not available.
Flu Activity Not available.
METAR KRIW 210953Z AUTO 06008KT 10SM CLR 12/02 A3035 RMK AO2 SLP222 T01170022

More Conditions Fewer Conditions

Pressure 30.19 in
Visibility 10.0 miles
Clouds Clear
Dew Point 37 °F
Humidity 55%
Rainfall 0.00 in
Snow Depth 0 in , 0 in , 0 in
UV 0.0 out of 12
Pollen 5.00 out of 12
Air Quality Not available.
Flu Activity Not available.
METAR KRIW 210953Z AUTO 06008KT 10SM CLR 12/02 A3035 RMK AO2 SLP222 T01170022

More Conditions Fewer Conditions

10-Day Weather Forecast

Almanac

Astronomy

Sep. 21, 2014 Rise Set
Actual Time 7:00 AM MDT 7:13 PM MDT
Civil Twilight 6:32 AM MDT 7:41 PM MDT
Nautical Twilight 5:58 AM MDT 8:14 PM MDT
Astronomical Twilight 5:24 AM MDT 8:48 PM MDT
Moon 4:34 AM MDT 5:53 PM MDT
Length of Visible Light 13h 09m
Length of Day
12h 12m
Tomorrow will be 2m 54s shorter.
Waning Crescent, 7% of the Moon is Illuminated
Today
Waning Crescent
Sep 24
New
Oct 1
First Quarter
Oct 8
Full
Oct 15
Last Quarter

Today's Extremes

State Highs State Lows

Community

WunderPhotos

Upload Photos

1,755,106 photos uploaded!

Nearby

Snow Depth

Station Depth Elevation
Hams Fork 0 in 7840 ft
Phillips Bench 0 in 8200 ft
Base Camp 0 in 7030 ft
Salt River Summit 0 in 7600 ft
Brooklyn Lake 0 in 10220 ft

Earthquake Activity

City Distance Mag. Time & Date
No recent earthquake activity has been reported nearby.
Minimum magnitude displayed is 2.5.

Coastal Water Temperatures

Place Temperature
No Stations Reporting

Nearby Weather Stations